YBCS Airport Information

Runway Information
Runway 12 Length 3035 ft width 60 ft
Elevation 9 ft Threshold 0 ft Heading 126
Runway 30 Length 3035 ft Width 60 ft
Elevation 6 ft Threshold 0 ft Heading 306
Runway 15 Length 10489 ft width 148 ft
Elevation 9 ft Threshold 0 ft Heading 156
Runway 33 Length 10489 ft Width 148 ft
Elevation 7 ft Threshold 0 ft Heading 336
Airport Frequencies
Type A/D Name APP/DEP Frequency 118.4 MHZ
Type ATIS Name ATIS Frequency 113 MHZ
Type CLD Name CLNC DEL Frequency 121.7 MHZ
Type GND Name GND Frequency 121.7 MHZ
Type TWR Name TWR Frequency 124.9 MHZ
Airport Navaids
Type VOR-DME Name Cairns Frequency 113000 KHZ
Type NDB Name Cairns Frequency 364 KHZ
Airport Weather Information & NOTAM
ADDS - METARS form results

(2252 UTC 27 November 2021)
Data provider http://aviationweather.gov/metar/data/
 
METAR text: YBCS 272239Z AUTO 09001KT 9999 // BKN020 BKN055 29/24 Q1010
Conditions at: YBCS (CAIRNS AIRPORT , AU) observed 2239 UTC 27 November 2021
Temperature: 29.0°C (84°F)
Dewpoint: 24.0°C (75°F) [RH = 74%]
Pressure (altimeter): 29.82 inches Hg (1010.0 mb)
Winds: from the E (90 degrees) at 1 MPH (1 knots; 0.5 m/s)
Visibility: 6 or more miles (10+ km)
Ceiling: 2000 feet AGL
Clouds: broken clouds at 2000 feet AGL
broken clouds at 5500 feet AGL
Weather: no significant weather observed at this time

METAR text: YBCS 272230Z AUTO 22001KT 9999 // SCT018 BKN055 29/24 Q1010
Conditions at: YBCS (CAIRNS AIRPORT , AU) observed 2230 UTC 27 November 2021
Temperature: 29.0°C (84°F)
Dewpoint: 24.0°C (75°F) [RH = 74%]
Pressure (altimeter): 29.82 inches Hg (1010.0 mb)
Winds: from the SW (220 degrees) at 1 MPH (1 knots; 0.5 m/s)
Visibility: 6 or more miles (10+ km)
Ceiling: 5500 feet AGL
Clouds: scattered clouds at 1800 feet AGL
broken clouds at 5500 feet AGL
Weather: no significant weather observed at this time

METAR text: YBCS 272200Z AUTO 16001KT 9999 // NCD 28/24 Q1010
Conditions at: YBCS (CAIRNS AIRPORT , AU) observed 2200 UTC 27 November 2021
Temperature: 28.0°C (82°F)
Dewpoint: 24.0°C (75°F) [RH = 79%]
Pressure (altimeter): 29.82 inches Hg (1010.0 mb)
Winds: from the SSE (160 degrees) at 1 MPH (1 knots; 0.5 m/s)
Visibility: 6 or more miles (10+ km)
Ceiling: at least 12,000 feet AGL
Clouds: sky clear below 12,000 feet AGL
Weather: no significant weather observed at this time

Forecast for: AMD
Text: TAF AMD YBCS 272022Z 2721/2818 VRB05KT 9999 FEW012 SCT022
Forecast period: 2100 UTC 27 November 2021 to 0000 UTC 28 November 2021
Forecast type: FROM: standard forecast or significant change
Winds: variable direction winds at 6 MPH (5 knots; 2.6 m/s)
Visibility: 6 or more miles (10+ km)
Ceiling: at least 12,000 feet AGL
Clouds: few clouds at 1200 feet AGL
scattered clouds at 2200 feet AGL
Weather: no significant weather forecast for this period
Text: FM280000 10008KT 9999 SCT035 INTER 2801/2807 3000 SHRA BKN015
Forecast period: 0000 to 1800 UTC 28 November 2021
Forecast type: FROM: standard forecast or significant change
Winds: from the E (100 degrees) at 9 MPH (8 knots; 4.1 m/s)
Visibility: 6 or more miles (10+ km)
Ceiling: at least 12,000 feet AGL
Clouds: scattered clouds at 3500 feet AGL
Weather: no significant weather forecast for this period
Text:
Forecast period: 0100 to 0700 UTC 28 November 2021
Forecast type: TEMPORARY: The following changes expected for less than half the time period
Visibility: 1.86 miles (2.99 km)
Ceiling: 1500 feet AGL
Clouds: broken clouds at 1500 feet AGL
Weather: SHRA  (rain showers)